Tiempo atmosférico en la estación meteorológica de Nuñomoral, Cáceres (475 m.)



Fecha
DESCASC
Temp. máxima en grados centígrados (hora)
DESCASC
Temp. mínima en grados centígrados (hora)
DESCASC
Temp. media en grados centígrados
DESCASC
Racha de viento máxima en m/sg (hora)
DESCASC
Velocidad máxima media en intervalos de 10 minutos(hora)
DESCASC
Precipitaciones diarias en mm
DESCASC
Precipitaciones de 00:00 a 06:00 en mm
DESCASC
Precipitaciones de 06:00 a 12:00 en mm
DESCASC
Precipitaciones de 12:00 a 18:00 en mm
DESCASC
Precipitaciones de 18:00 a 24:00 en mm
DESCASC
22-04-2018 21.1 (19:10) 10.5 (00:00) 15.8 14.72 (12:40) 4.44 (14:40) 7 4.4 0.8 1.8 0
21-04-2018 18.2 (14:40) 9.3 (07:20) 13.8 11.11 (15:00) 6.39 (15:00) 1.8 0 0.4 0.2 1.2
20-04-2018 24.1 (18:10) 7 (08:20) 15.6 8.61 (19:40) 5.28 (19:40) 0 0 0 0 0
19-04-2018 25.6 (15:50) 6.8 (00:00) 16.2 8.89 (17:30) 4.72 (17:30) 0 0 0 0 0
18-04-2018 25.4 (18:50) 4.5 (00:00) 14.9 9.17 (15:10) 3.89 (17:00) 0 0 0 0 0
17-04-2018 21.7 (16:50) 2.8 (00:00) 12.3 7.22 (16:10) 4.17 (16:10) 0 0 0 0 0
16-04-2018 18.5 (18:20) 6.7 (00:00) 12.6 6.39 (11:40) 3.89 (19:50) 0.2 0.2 0 0 0
15-04-2018 13 (16:00) 7.7 (00:00) 10.3 7.78 (19:40) 4.72 (19:40) 16 0.2 1.2 0.8 13.8
14-04-2018 18.2 (18:10) 6.8 (00:00) 12.5 8.33 (16:00) 3.61 (17:40) 0 0 0 0 0
13-04-2018 12.8 (18:20) 5.7 (00:00) 9.3 3.89 (17:20) 2.78 (17:20) 2.8 1.4 0.4 1 0
12-04-2018 9.2 (00:00) 3.4 (00:00) 6.3 12.22 (16:40) 5.83 (16:50) 22 0 1.4 14 6.6
11-04-2018 11.3 (17:50) 4.4 (00:00) 7.9 12.22 (16:30) 6.39 (14:50) 1.8 1.8 0 0 0
10-04-2018 9.9 (15:20) 4.7 (00:00) 7.3 10 (17:10) 5.56 (17:50) 16.6 2.2 11 2 1.4
09-04-2018 8.8 (17:00) 1 (00:00) 4.9 3.61 (19:50) 1.94 (18:20) 13.4 6.4 6 0.4 0.6
08-04-2018 14 (17:30) 5 (00:00) 9.5 9.72 (16:50) 4.17 (19:00) 6.8 0 0 0.6 6.2
07-04-2018 13.4 (14:10) 6.7 (00:00) 10 8.33 (17:30) 4.44 (14:30) 6.4 3.4 0.6 1.4 1
06-04-2018 18.3 (16:50) 5 (00:00) 11.6 14.72 (18:20) 6.11 (17:20) 3.4 0 0 0 3.4
05-04-2018 17.8 (17:00) 1 (00:00) 9.4 8.89 (17:10) 5 (16:10) 0 0 0 0 0
04-04-2018 15.8 (19:10) 7.1 (00:00) 11.5 6.67 (18:50) 3.33 (19:30) 6.4 4.2 1 1.2 0
03-04-2018 13.1 (16:20) 7.2 (00:00) 10.2 12.22 (11:10) 4.17 (16:30) 24.6 5 8 5.4 6.2
02-04-2018 15.7 (15:00) 5.7 (00:00) 10.7 12.22 (14:50) 6.39 (12:30) 6.6 0 0 4 2.6
01-04-2018 16.7 (19:20) 2.1 (00:00) 9.4 8.89 (14:00) 5.56 (14:30) 0 0 0 0 0
31-03-2018 15.2 (17:50) 4.7 (00:00) 9.9 12.78 (00:10) 5.83 (00:10) 0 0 0 0 0
30-03-2018 10.8 (14:50) 2.3 (00:00) 6.6 12.5 (21:20) 5.56 (23:40) 5.2 1.2 0 0.4 3.6
29-03-2018 14.5 (15:30) 5.6 (00:00) 10 10.28 (11:00) 5.56 (11:00) 1.8 0 0 0 1.8
28-03-2018 20.1 (14:20) 2 (00:00) 11.1 10 (18:30) 6.11 (18:30) 0 0 0 0 0
27-03-2018 21.9 (17:20) 5.3 (00:00) 13.6 10.83 (10:50) 6.39 (14:20) 0 0 0 0 0

Gráficas

Temp. máximas Temp. mínimas Temp. medias Precipitaciones Rachas de viento máximas Velocidades máximas media en intervalos de 10 minutos

Datos horarios

Fecha y hora oficial Temperatura (ºC) Velocidad del viento (km/h) Dirección del viento Racha (km/h) Dirección de racha Precipitación (mm) Presión (hPa) Tendencia (hPa) Humedad (%)
2018-04-25 23:00:00 16.6 5 Noroeste 9 Noroeste 0 -- -- 72
2018-04-25 22:00:00 18.6 6 Noroeste 9 Noroeste 0 -- -- 64
2018-04-25 21:00:00 22.2 4 Norte 8 Norte 0 -- -- 53
2018-04-25 20:00:00 27.4 4 Oeste 18 Norte 0 -- -- 38
2018-04-25 19:00:00 28.5 9 Oeste 21 Oeste 0 -- -- 34
2018-04-25 18:00:00 28.8 11 Oeste 24 Oeste 0 -- -- 31
2018-04-25 17:00:00 28.9 14 Noroeste 29 Noroeste 0 -- -- 30
2018-04-25 16:00:00 28.5 7 Noroeste 21 Norte 0 -- -- 31
2018-04-25 15:00:00 27.9 8 Oeste 25 Sudoeste 0 -- -- 36
2018-04-25 14:00:00 26.8 13 Este 20 Este 0 -- -- 41
2018-04-25 13:00:00 25 11 Este 16 Este 0 -- -- 48
2018-04-25 12:00:00 22.5 6 Este 10 Este 0 -- -- 56
2018-04-25 11:00:00 18 2 Este 5 Este 0 -- -- 76
2018-04-25 10:00:00 13.9 0 Calma 5 Noroeste 0 -- -- 94
2018-04-25 09:00:00 10.4 2 Noroeste 5 Noroeste 0 -- -- 99
2018-04-25 08:00:00 8.7 0 Calma 6 Sudoeste 0 -- -- 97
2018-04-25 07:00:00 9.2 5 Noroeste 8 Noroeste 0 -- -- 98
2018-04-25 06:00:00 9.8 3 Noroeste 6 Noroeste 0 -- -- 98
2018-04-25 05:00:00 9.8 2 Noroeste 4 Norte 0.2 -- -- 96
2018-04-25 04:00:00 10.6 3 Noroeste 5 Norte 0 -- -- 97
2018-04-25 03:00:00 11.2 4 Noroeste 8 Norte 0 -- -- 96
2018-04-25 02:00:00 11.6 4 Norte 8 Noroeste 0 -- -- 96
2018-04-25 01:00:00 11.9 0 Calma 6 Este 0 -- -- 95
2018-04-25 00:00:00 12.7 4 Norte 6 Norte 0 -- -- 94
2018-04-24 23:00:00 13.5 4 Noroeste 5 Nordeste 0 -- -- 94
2018-04-24 22:00:00 14.7 3 Norte 9 Oeste 0 -- -- 92
2018-04-24 21:00:00 15.9 5 Oeste 12 Noroeste 0 -- -- 90
2018-04-24 20:00:00 17 7 Oeste 21 Sur 0.6 -- -- 86
2018-04-24 19:00:00 20.5 18 Oeste 45 Oeste 6.8 -- -- 66
2018-04-24 18:00:00 26.6 5 Este 15 Este 0 -- -- 41
2018-04-24 17:00:00 26.7 6 Este 15 Este 0 -- -- 41
2018-04-24 16:00:00 25.4 10 Este 17 Este 0 -- -- 41
2018-04-24 15:00:00 26.6 4 Sudeste 10 Este 0 -- -- 33
2018-04-24 14:00:00 26.4 4 Sudeste 10 Noroeste 0 -- -- 36
2018-04-24 13:00:00 24.6 3 Este 9 Sur 0 -- -- 44
2018-04-24 12:00:00 22.3 4 Sur 12 Este 0 -- -- 44
2018-04-24 11:00:00 19.4 4 Este 14 Este 0 -- -- 65
2018-04-24 10:00:00 15 7 Este 16 Este 0 -- -- 83
2018-04-24 09:00:00 11.2 2 Noroeste 8 Oeste 0 -- -- 96
2018-04-24 08:00:00 9.7 2 Oeste 11 Este 0 -- -- 96
2018-04-24 07:00:00 10.5 0 Calma 11 Oeste 0 -- -- 94
2018-04-24 06:00:00 10.8 3 Noroeste 5 Norte 0 -- -- 94
2018-04-24 05:00:00 11.7 3 Noroeste 6 Norte 0 -- -- 94
2018-04-24 04:00:00 12.1 0 Calma 6 Norte 0 -- -- 93
2018-04-24 03:00:00 12.2 3 Noroeste 5 Noroeste 0 -- -- 93
2018-04-24 02:00:00 11.8 2 Este 6 Noroeste 0 -- -- 91
2018-04-24 01:00:00 12.7 3 Norte 7 Norte 0 -- -- 90
2018-04-24 00:00:00 13.7 4 Noroeste 7 Norte 0 -- -- 88
2018-04-23 23:00:00 15.2 4 Noroeste 9 Noroeste 0 -- -- 82
2018-04-23 22:00:00 17.9 4 Noroeste 7 Noroeste 0 -- -- 73
2018-04-23 21:00:00 21.3 4 Norte 8 Norte 0 -- -- 63
2018-04-23 20:00:00 24.8 0 Calma 20 Este 0 -- -- 47
2018-04-23 19:00:00 25.4 10 Este 18 Este 0 -- -- 41
2018-04-23 18:00:00 25.4 6 Noroeste 12 Noroeste 0 -- -- 41
2018-04-23 17:00:00 23.7 2 Sudeste 18 Este 0 -- -- 48
2018-04-23 16:00:00 23.5 3 Sudoeste 19 Sudoeste 0 -- -- 47
2018-04-23 15:00:00 23.5 4 Noroeste 12 Oeste 0 -- -- 47
2018-04-23 14:00:00 20.4 6 Este 13 Este 0 -- -- 60
2018-04-23 13:00:00 18.6 6 Este 15 Sudeste 0 -- -- 72
2018-04-23 12:00:00 15.6 4 Este 10 Este 0 -- -- 88
2018-04-23 11:00:00 13.7 2 Norte 6 Sudoeste 0 -- -- 96
2018-04-23 10:00:00 11.6 4 Noroeste 7 Noroeste 0 -- -- 98
2018-04-23 09:00:00 9.7 5 Noroeste 9 Noroeste 0 -- -- 98
2018-04-23 08:00:00 8.6 0 Calma 4 Este 0 -- -- 97
2018-04-23 07:00:00 9.1 0 Calma 7 Oeste 0 -- -- 97
2018-04-23 06:00:00 9.3 2 Noroeste 8 Oeste 0 -- -- 97
2018-04-23 05:00:00 9.4 3 Noroeste 6 Noroeste 0 -- -- 97
2018-04-23 04:00:00 9.6 0 Calma 8 Noroeste 0 -- -- 96
2018-04-23 03:00:00 10.2 5 Noroeste 8 Norte 0 -- -- 96
2018-04-23 02:00:00 10.3 2 Noroeste 5 Noroeste 0 -- -- 95
2018-04-23 01:00:00 10.9 2 Norte 5 Norte 0 -- -- 94
2018-04-23 00:00:00 12.1 3 Noroeste 8 Noroeste 0 -- -- 93
2018-04-22 23:00:00 13.4 2 Norte 8 Oeste 0 -- -- 90
2018-04-22 22:00:00 15.1 3 Oeste 8 Sudoeste 0 -- -- 87
2018-04-22 21:00:00 17.3 4 Oeste 10 Norte 0 -- -- 78
2018-04-22 20:00:00 20.5 3 Sudeste 12 Este 0 -- -- 67
2018-04-22 19:00:00 20.9 3 Sudoeste 10 Sudoeste 0 -- -- 60
2018-04-22 18:00:00 19.9 5 Norte 13 Este 0.2 -- -- 64
2018-04-22 17:00:00 20 6 Este 9 Este 0 -- -- 62
2018-04-22 16:00:00 19 3 Sudoeste 9 Oeste 0 -- -- 68
2018-04-22 15:00:00 16.5 7 Oeste 24 Sudoeste 0 -- -- 79
2018-04-22 14:00:00 15.3 6 Este 16 Norte 1 -- -- 87
2018-04-22 13:00:00 14.7 7 Noroeste 53 Sur 0.6 -- -- 87
2018-04-22 12:00:00 15.5 5 Sudoeste 17 Oeste 0.2 -- -- 86
2018-04-22 11:00:00 12.5 4 Este 15 Sudoeste 0 -- -- 96
2018-04-22 10:00:00 11.9 5 Sudoeste 15 Oeste 0 -- -- 97
2018-04-22 09:00:00 11.3 2 Noroeste 8 Oeste 0.2 -- -- 97
2018-04-22 08:00:00 11.2 2 Oeste 9 Sudoeste 0 -- -- 97
2018-04-22 07:00:00 11.3 2 Oeste 6 Oeste 0.4 -- -- 97
2018-04-22 06:00:00 11.4 5 Norte 12 Sudoeste 0 -- -- 97
2018-04-22 05:00:00 11.6 7 Oeste 14 Sudoeste 0 -- -- 97
2018-04-22 04:00:00 11.8 2 Nordeste 9 Sudeste 2.4 -- -- 97
2018-04-22 03:00:00 11.8 4 Sudoeste 7 Norte 1.2 -- -- 97
2018-04-22 02:00:00 11.6 6 Norte 13 Este 0.8 -- -- 97
2018-04-22 01:00:00 11 2 Sudeste 8 Norte 0 -- -- 96
2018-04-22 00:00:00 10.5 2 Norte 11 Sudoeste 0 -- -- 95
2018-04-21 23:00:00 10.5 0 Calma 7 Norte 0 -- -- 93
2018-04-21 22:00:00 11.8 0 Calma 10 Sudoeste 0 -- -- 91
2018-04-21 21:00:00 13.7 3 Noroeste 6 Noroeste 0 -- -- 88
2018-04-21 20:00:00 15.5 0 Calma 15 Oeste 0 -- -- 81
2018-04-21 19:00:00 14.2 3 Noroeste 31 Oeste 1.2 -- -- 83
2018-04-21 18:00:00 16.6 11 Sudoeste 28 Sudoeste 0 -- -- 63
2018-04-21 17:00:00 15.9 14 Oeste 26 Oeste 0 -- -- 71
2018-04-21 16:00:00 15.1 3 Sudoeste 33 Oeste 0.2 -- -- 83
2018-04-21 15:00:00 17.1 23 Oeste 40 Oeste 0 -- -- 65
2018-04-21 14:00:00 16.8 7 Sudoeste 15 Sudoeste 0 -- -- 70
2018-04-21 13:00:00 14.4 2 Noroeste 18 Este 0 -- -- 79
2018-04-21 12:00:00 13.1 8 Oeste 18 Oeste 0 -- -- 86
2018-04-21 11:00:00 11 0 Calma 4 Sur 0.4 -- -- 94
2018-04-21 10:00:00 10.6 0 Calma 4 Norte 0 -- -- 91
2018-04-21 09:00:00 10.2 2 Noroeste 12 Sudeste 0 -- -- 91
2018-04-21 08:00:00 9.5 4 Noroeste 8 Noroeste 0 -- -- 92
2018-04-21 07:00:00 9.5 0 Calma 4 Norte 0 -- -- 90
2018-04-21 06:00:00 10.1 3 Norte 8 Oeste 0 -- -- 88
2018-04-21 05:00:00 10.5 3 Nordeste 6 Norte 0 -- -- 86
2018-04-21 04:00:00 11.7 2 Oeste 5 Noroeste 0 -- -- 84
2018-04-21 03:00:00 11.9 0 Calma 5 Este 0 -- -- 82
2018-04-21 02:00:00 11.9 3 Norte 6 Norte 0 -- -- 81
2018-04-21 01:00:00 13 2 Oeste 7 Oeste 0 -- -- 76
2018-04-21 00:00:00 13.4 5 Oeste 8 Oeste 0 -- -- 73
2018-04-20 23:00:00 14.1 0 Calma 5 Noroeste 0 -- -- 70
2018-04-20 22:00:00 16.3 0 Calma 10 Norte 0 -- -- 61
2018-04-20 21:00:00 19.6 6 Norte 26 Oeste 0 -- -- 49
2018-04-20 20:00:00 21.7 12 Sudoeste 31 Oeste 0 -- -- 40
2018-04-20 19:00:00 23 17 Sudoeste 29 Sudoeste 0 -- -- 40
2018-04-20 18:00:00 23.7 3 Noroeste 24 Oeste 0 -- -- 41
2018-04-20 17:00:00 22.9 10 Sudoeste 27 Oeste 0 -- -- 43
2018-04-20 16:00:00 22.8 15 Sudoeste 30 Sudoeste 0 -- -- 42
2018-04-20 15:00:00 23.5 10 Sudoeste 22 Sudoeste 0 -- -- 43
2018-04-20 14:00:00 22.6 11 Este 24 Este 0 -- -- 39
2018-04-20 13:00:00 22 8 Este 19 Este 0 -- -- 43
2018-04-20 12:00:00 20.1 7 Este 15 Este 0 -- -- 47
2018-04-20 11:00:00 17.1 4 Sudeste 10 Este 0 -- -- 62
2018-04-20 10:00:00 11.6 0 Calma 4 Sudeste 0 -- -- 87
2018-04-20 09:00:00 8.5 0 Calma 5 Noroeste 0 -- -- 96
2018-04-20 08:00:00 7.1 2 Norte 6 Norte 0 -- -- 94
2018-04-20 07:00:00 7.3 2 Norte 5 Noroeste 0 -- -- 94
2018-04-20 06:00:00 7.4 2 Este 5 Norte 0 -- -- 93
2018-04-20 05:00:00 7.9 0 Calma 5 Norte 0 -- -- 91
2018-04-20 04:00:00 8.7 3 Norte 6 Norte 0 -- -- 89
2018-04-20 03:00:00 9.5 2 Noroeste 6 Este 0 -- -- 86
2018-04-20 02:00:00 10.1 2 Norte 6 Norte 0 -- -- 83
2018-04-20 01:00:00 11 2 Norte 7 Norte 0 -- -- 80
2018-04-20 00:00:00 12.7 2 Noroeste 6 Norte 0 -- -- 73
2018-04-19 23:00:00 14.2 3 Oeste 6 Oeste 0 -- -- 69
2018-04-19 22:00:00 16.8 0 Calma 10 Norte 0 -- -- 56
2018-04-19 21:00:00 20.3 7 Norte 27 Oeste 0 -- -- 44
2018-04-19 20:00:00 23.5 11 Sudoeste 27 Sudoeste 0 -- -- 33
2018-04-19 19:00:00 24.5 13 Oeste 31 Oeste 0 -- -- 32
2018-04-19 18:00:00 25 15 Sudoeste 32 Oeste 0 -- -- 34
2018-04-19 17:00:00 25.1 15 Oeste 28 Sudoeste 0 -- -- 33
2018-04-19 16:00:00 25.4 14 Sudoeste 24 Sudoeste 0 -- -- 35
2018-04-19 15:00:00 24.9 9 Sudoeste 22 Sudoeste 0 -- -- 37
2018-04-19 14:00:00 23.7 12 Este 22 Este 0 -- -- 38
2018-04-19 13:00:00 22.7 11 Este 18 Este 0 -- -- 41
2018-04-19 12:00:00 20.9 3 Sudeste 6 Sudeste 0 -- -- 50
2018-04-19 11:00:00 16.7 2 Noroeste 6 Sudeste 0 -- -- 66
2018-04-19 10:00:00 12.8 0 Calma 4 Nordeste 0 -- -- 83
2018-04-19 09:00:00 8 2 Norte 4 Este 0 -- -- 98
2018-04-19 08:00:00 7 0 Calma 8 Noroeste 0 -- -- 95
2018-04-19 07:00:00 7.1 0 Calma 4 Norte 0 -- -- 94
2018-04-19 06:00:00 7.8 3 Noroeste 5 Oeste 0 -- -- 95
2018-04-19 05:00:00 8.2 0 Calma 4 Noroeste 0 -- -- 93
2018-04-19 04:00:00 8.8 0 Calma 5 Norte 0 -- -- 93
2018-04-19 03:00:00 9.4 2 Noroeste 5 Noroeste 0 -- -- 91
2018-04-19 02:00:00 10.3 0 Calma 4 Norte 0 -- -- 87
2018-04-19 01:00:00 11.4 3 Noroeste 6 Oeste 0 -- -- 85
2018-04-19 00:00:00 12.6 4 Noroeste 9 Oeste 0 -- -- 79
2018-04-18 23:00:00 14 3 Noroeste 6 Noroeste 0 -- -- 73
2018-04-18 22:00:00 15.9 3 Oeste 6 Noroeste 0 -- -- 67
2018-04-18 21:00:00 19.2 3 Norte 11 Oeste 0 -- -- 53
2018-04-18 20:00:00 24.6 8 Oeste 21 Oeste 0 -- -- 38
2018-04-18 19:00:00 25.4 9 Sudoeste 26 Este 0 -- -- 30
2018-04-18 18:00:00 24.9 10 Este 31 Sudeste 0 -- -- 34
2018-04-18 17:00:00 24.8 14 Este 27 Este 0 -- -- 33
2018-04-18 16:00:00 24.6 10 Sudeste 33 Oeste 0 -- -- 33
2018-04-18 15:00:00 24.4 6 Sur -- -- -- -- -- 34
2018-04-18 14:00:00 -- -- -- -- -- -- -- -- --
2018-04-18 13:00:00 22.8 9 Este 21 Este 0 -- -- 39
2018-04-18 12:00:00 20.2 5 Este 13 Este 0 -- -- 52
2018-04-18 11:00:00 15.6 6 Este 13 Este 0 -- -- 65
2018-04-18 10:00:00 10.8 2 Este 6 Norte 0 -- -- 84
2018-04-18 09:00:00 6 2 Norte 6 Noroeste 0 -- -- 98
2018-04-18 08:00:00 4.5 0 Calma 5 Sudeste 0 -- -- 96
2018-04-18 07:00:00 4.6 0 Calma 4 Este 0 -- -- 96
2018-04-18 06:00:00 5.1 0 Calma 4 Noroeste 0 -- -- 96
2018-04-18 05:00:00 5.3 0 Calma 4 Norte 0 -- -- 94
2018-04-18 04:00:00 5.8 2 Norte 4 Norte 0 -- -- 93
2018-04-18 03:00:00 6.8 2 Noroeste 7 Noroeste 0 -- -- 92
2018-04-18 02:00:00 7.3 3 Noroeste 6 Noroeste 0 -- -- 90
2018-04-18 01:00:00 7.9 3 Noroeste 5 Norte 0 -- -- 88
2018-04-18 00:00:00 8.8 3 Noroeste 6 Norte 0 -- -- 84
2018-04-17 23:00:00 10.3 4 Norte 5 Noroeste 0 -- -- 77
2018-04-17 22:00:00 12.9 3 Noroeste 6 Oeste 0 -- -- 67
2018-04-17 21:00:00 16.9 3 Norte 12 Este 0 -- -- 53
2018-04-17 20:00:00 21 4 Sudeste 16 Este 0 -- -- 38
2018-04-17 19:00:00 21.2 13 Este 22 Este 0 -- -- 34
2018-04-17 18:00:00 21.6 11 Este 23 Este 0 -- -- 34
2018-04-17 17:00:00 21.6 11 Este 26 Este 0 -- -- 37
2018-04-17 16:00:00 21 13 Este 24 Este 0 -- -- 39
2018-04-17 15:00:00 20.1 10 Este 23 Este 0 -- -- 42
2018-04-17 14:00:00 19.1 10 Este 20 Sudeste 0 -- -- 49
2018-04-17 13:00:00 17.7 9 Este 18 Este 0 -- -- 50
2018-04-17 12:00:00 15.7 9 Este 15 Este 0 -- -- 59
2018-04-17 11:00:00 13 3 Este 6 Este 0 -- -- 75
2018-04-17 10:00:00 8 0 Calma 4 Norte 0 -- -- 95
2018-04-17 09:00:00 4.1 3 Norte 5 Norte 0 -- -- 99
2018-04-17 08:00:00 3 2 Noroeste 4 Norte 0 -- -- 97
2018-04-17 07:00:00 3.3 0 Calma 5 Norte 0 -- -- 96
2018-04-17 06:00:00 3.9 3 Norte 6 Noroeste 0 -- -- 96
2018-04-17 05:00:00 4.1 0 Calma 4 Norte 0 -- -- 96
2018-04-17 04:00:00 5 3 Noroeste 4 Norte 0 -- -- 95
2018-04-17 03:00:00 5.6 3 Norte 5 Norte 0 -- -- 94
2018-04-17 02:00:00 6.3 2 Norte 5 Norte 0 -- -- 93
2018-04-17 01:00:00 7.2 3 Noroeste 6 Noroeste 0 -- -- 92
2018-04-17 00:00:00 8.4 3 Noroeste 5 Noroeste 0 -- -- 88
2018-04-16 23:00:00 9.8 3 Oeste 6 Norte 0 -- -- 84
2018-04-16 22:00:00 11.9 2 Noroeste 17 Oeste 0 -- -- 75
2018-04-16 21:00:00 14.9 10 Sudoeste 19 Sudoeste 0 -- -- 60
2018-04-16 20:00:00 16.7 13 Sudoeste 23 Oeste 0 -- -- 53
2018-04-16 19:00:00 17.9 8 Oeste 21 Oeste 0 -- -- 53
2018-04-16 18:00:00 18.4 6 Oeste 23 Este 0 -- -- 47
2018-04-16 17:00:00 17.9 10 Este 21 Este 0 -- -- 46
2018-04-16 16:00:00 17.3 8 Este 19 Este 0 -- -- 47
2018-04-16 15:00:00 16.4 4 Sudeste 17 Este 0 -- -- 50
2018-04-16 14:00:00 14.9 4 Sudoeste 13 Sudoeste 0 -- -- 54
2018-04-16 13:00:00 13.6 5 Este 14 Oeste 0 -- -- 55
2018-04-16 12:00:00 12.2 4 Sudeste 23 Sudoeste 0 -- -- 62
2018-04-16 11:00:00 11.6 3 Nordeste 10 Este 0 -- -- 64
2018-04-16 10:00:00 9.9 4 Nordeste 13 Oeste 0 -- -- 76
2018-04-16 09:00:00 7.9 9 Sudoeste 16 Sudoeste 0 -- -- 81
2018-04-16 08:00:00 6.7 5 Oeste 16 Oeste 0 -- -- 87
2018-04-16 07:00:00 7.7 13 Oeste 23 Sudoeste 0 -- -- 81
2018-04-16 06:00:00 8 7 Oeste 15 Oeste 0 -- -- 84
2018-04-16 05:00:00 8.1 8 Oeste 19 Oeste 0 -- -- 84
2018-04-16 04:00:00 7.9 4 Oeste 13 Noroeste 0 -- -- 87
2018-04-16 03:00:00 7.9 4 Noroeste 13 Oeste 0 -- -- 88
2018-04-16 02:00:00 8.1 4 Noroeste 22 Noroeste 0 -- -- 93
2018-04-16 01:00:00 7.5 0 Calma 6 Norte 0.2 -- -- 97
2018-04-16 00:00:00 7.7 0 Calma 7 Nordeste 0 -- -- 96
2018-04-15 23:00:00 8.1 3 Norte 8 Nordeste 0 -- -- 95
2018-04-15 22:00:00 9.3 2 Sudeste 13 Norte 2 -- -- 91
2018-04-15 21:00:00 10.1 4 Noroeste 26 Noroeste 0.6 -- -- 87
2018-04-15 20:00:00 10.6 12 Oeste 28 Oeste 7.6 -- -- 90
2018-04-15 19:00:00 12.2 4 Este 8 Este 3.6 -- -- 95
2018-04-15 18:00:00 12.5 4 Este 12 Este 0.8 -- -- 92
2018-04-15 17:00:00 12.8 3 Nordeste 15 Este 0 -- -- 90
2018-04-15 16:00:00 13 5 Nordeste 18 Este 0 -- -- 86
2018-04-15 15:00:00 12.5 7 Este 22 Este 0 -- -- 86
2018-04-15 14:00:00 12.7 3 Norte 10 Este 0 -- -- 84
2018-04-15 13:00:00 11.4 5 Este 12 Este 0 -- -- 91
2018-04-15 12:00:00 10.4 3 Sudeste 6 Sudeste 0 -- -- 95
2018-04-15 11:00:00 9.4 4 Este 12 Este 0.4 -- -- 96
2018-04-15 10:00:00 9.6 3 Nordeste 11 Este 0.2 -- -- 96
2018-04-15 09:00:00 9.5 0 Calma 5 Este 0.6 -- -- 96
2018-04-15 08:00:00 9.3 0 Calma 2 Sudoeste 0 -- -- 95
2018-04-15 07:00:00 9.2 0 Calma 4 Sudeste 0 -- -- 96
2018-04-15 06:00:00 9 0 Calma 4 Este 0 -- -- 95
2018-04-15 05:00:00 9 0 Calma 2 Sur 0.2 -- -- 94
2018-04-15 04:00:00 8.8 0 Calma 4 Norte 0 -- -- 92
2018-04-15 03:00:00 8.8 0 Calma 3 Nordeste 0 -- -- 91
2018-04-15 02:00:00 8.7 0 Calma 5 Norte 0 -- -- 90
2018-04-15 01:00:00 8.4 2 Norte 5 Oeste 0 -- -- 90
2018-04-15 00:00:00 8.4 0 Calma 5 Noroeste 0 -- -- 88
2018-04-14 23:00:00 9.6 0 Calma 5 Norte 0 -- -- 82
2018-04-14 22:00:00 11.6 3 Oeste 11 Norte 0 -- -- 74
2018-04-14 21:00:00 14 6 Norte 9 Norte 0 -- -- 67
2018-04-14 20:00:00 17.8 5 Oeste 18 Oeste 0 -- -- 52
2018-04-14 19:00:00 17.8 12 Oeste 28 Oeste 0 -- -- 50
2018-04-14 18:00:00 18.1 6 Sudoeste 25 Sudeste 0 -- -- 49
2018-04-14 17:00:00 17.3 10 Oeste 26 Oeste 0 -- -- 48
2018-04-14 16:00:00 17.2 11 Oeste 30 Oeste 0 -- -- 54
2018-04-14 15:00:00 16.8 5 Sudeste 13 Este 0 -- -- 53
2018-04-14 14:00:00 15.5 6 Oeste 12 Sudoeste 0 -- -- 55
2018-04-14 13:00:00 14.9 5 Oeste 14 Sudoeste 0 -- -- 59
2018-04-14 12:00:00 14.6 8 Oeste 18 Noroeste 0 -- -- 62
2018-04-14 11:00:00 13 9 Oeste 19 Oeste 0 -- -- 67
2018-04-14 10:00:00 11.4 9 Sudoeste 18 Oeste 0 -- -- 74
2018-04-14 09:00:00 10 5 Oeste 15 Oeste 0 -- -- 82
2018-04-14 08:00:00 8.9 3 Noroeste 14 Oeste 0 -- -- 89
2018-04-14 07:00:00 9.6 8 Oeste 18 Oeste 0 -- -- 85
2018-04-14 06:00:00 9.1 9 Oeste 17 Sudoeste 0 -- -- 89
2018-04-14 05:00:00 7.6 2 Noroeste 6 Norte 0 -- -- 97
2018-04-14 04:00:00 7.1 3 Noroeste 7 Norte 0 -- -- 97
2018-04-14 03:00:00 7 0 Calma 5 Oeste 0 -- -- 95
2018-04-14 02:00:00 7.7 2 Noroeste 9 Oeste 0 -- -- 94
2018-04-14 01:00:00 7.9 2 Norte 6 Noroeste 0 -- -- 94
2018-04-14 00:00:00 8.9 3 Oeste 10 Oeste 0 -- -- 93
2018-04-13 23:00:00 9 0 Calma 5 Norte 0 -- -- 93
2018-04-13 22:00:00 9.6 2 Norte 5 Norte 0 -- -- 90
2018-04-13 21:00:00 11.4 3 Norte 5 Norte 0 -- -- 86
2018-04-13 20:00:00 12.3 4 Norte 8 Sudeste 0 -- -- 79
2018-04-13 19:00:00 12.7 5 Este 14 Este 0 -- -- 71
2018-04-13 18:00:00 12.6 3 Nordeste 14 Este 0 -- -- 66
2018-04-13 17:00:00 11.4 6 Este 12 Oeste 0.6 -- -- 74
2018-04-13 16:00:00 12 5 Oeste 10 Oeste 0.2 -- -- 71
2018-04-13 15:00:00 12.3 4 Norte 10 Sur 0.2 -- -- 71
2018-04-13 14:00:00 11.4 3 Este 10 Oeste 0 -- -- 70
2018-04-13 13:00:00 9.8 6 Norte 13 Norte 0 -- -- 81
2018-04-13 12:00:00 8.8 0 Calma 5 Noroeste 0 -- -- 83
2018-04-13 11:00:00 7.7 0 Calma 4 Sur 0 -- -- 91
2018-04-13 10:00:00 6.7 0 Calma 3 Sudoeste 0.2 -- -- 97
2018-04-13 09:00:00 6.3 0 Calma 3 Norte 0 -- -- 99
2018-04-13 08:00:00 6 0 Calma 2 Sudoeste 0.2 -- -- 98
2018-04-13 07:00:00 5.9 0 Calma 3 Nordeste 0 -- -- 98
2018-04-13 06:00:00 5.7 2 Este 4 Nordeste 0 -- -- 98
2018-04-13 05:00:00 5.9 0 Calma 4 Nordeste 0 -- -- 98
2018-04-13 04:00:00 6.1 0 Calma 3 Norte 0.2 -- -- 97
2018-04-13 03:00:00 6.3 0 Calma 4 Nordeste 1.2 -- -- 97
2018-04-13 02:00:00 6.4 0 Calma 5 Este 0 -- -- 98
2018-04-13 01:00:00 6.3 3 Norte 4 Norte 0 -- -- 98
2018-04-13 00:00:00 6.2 0 Calma 3 Nordeste 0.2 -- -- 97
2018-04-12 23:00:00 6.6 2 Este 5 Este 1.2 -- -- 97
2018-04-12 22:00:00 6.8 0 Calma 9 Norte 1.2 -- -- 96
2018-04-12 21:00:00 7.1 2 Nordeste 6 Oeste 2.2 -- -- 96
2018-04-12 20:00:00 7.3 2 Nordeste 5 Norte 1.4 -- -- 95
2018-04-12 19:00:00 7.3 4 Noroeste 12 Noroeste 0.4 -- -- 94
2018-04-12 18:00:00 7.2 5 Norte 32 Este 2.4 -- -- 93
2018-04-12 17:00:00 7.2 15 Este 44 Este 2.8 -- -- 89
2018-04-12 16:00:00 7.2 15 Este 34 Este 2.8 -- -- 86
2018-04-12 15:00:00 7.6 7 Este 22 Este 3 -- -- 89
2018-04-12 14:00:00 8 3 Norte 14 Oeste 1.8 -- -- 90
2018-04-12 13:00:00 8 5 Nordeste 13 Nordeste 1.2 -- -- 91
2018-04-12 12:00:00 7.7 3 Sudoeste 9 Nordeste 1 -- -- 95
2018-04-12 11:00:00 6.9 3 Este 10 Este 0.4 -- -- 97
2018-04-12 10:00:00 5.6 0 Calma 4 Este 0 -- -- 96
2018-04-12 09:00:00 4.5 0 Calma 3 Este 0 -- -- 96
2018-04-12 08:00:00 3.8 0 Calma 8 Oeste 0 -- -- 95
2018-04-12 07:00:00 3.7 0 Calma 2 Norte 0 -- -- 92
2018-04-12 06:00:00 5.3 0 Calma 4 Oeste 0 -- -- 88
2018-04-12 05:00:00 7.4 2 Sudoeste 8 Sudoeste 0 -- -- 84
2018-04-12 04:00:00 8.1 2 Oeste 12 Noroeste 0 -- -- 83
2018-04-12 03:00:00 8.8 7 Noroeste 16 Oeste 0 -- -- 75
2018-04-12 02:00:00 8.8 8 Oeste 26 Sudoeste 0 -- -- 75
2018-04-12 01:00:00 8.4 4 Oeste 23 Oeste 0 -- -- 79
2018-04-12 00:00:00 9.2 13 Oeste 27 Noroeste 0 -- -- 72
2018-04-11 23:00:00 9.5 12 Oeste 22 Norte 0 -- -- 69
2018-04-11 22:00:00 10 14 Sudoeste 27 Sudoeste 0 -- -- 66
2018-04-11 21:00:00 10.3 7 Oeste 37 Sudoeste 0 -- -- 64
2018-04-11 20:00:00 11.1 16 Sudoeste 33 Sudoeste 0 -- -- 58
2018-04-11 19:00:00 11.3 20 Sudoeste 37 Oeste 0 -- -- 55
2018-04-11 18:00:00 11.2 17 Sudoeste 33 Sudoeste 0 -- -- 52
2018-04-11 17:00:00 11 14 Oeste 44 Sudoeste 0 -- -- 53
2018-04-11 16:00:00 10.6 20 Sudoeste 40 Oeste 0 -- -- 52
2018-04-11 15:00:00 10.1 22 Sudoeste 41 Oeste 0 -- -- 52
2018-04-11 14:00:00 8.8 17 Sudoeste 35 Oeste 0 -- -- 57
2018-04-11 13:00:00 8.4 18 Sudoeste 41 Sudoeste 0 -- -- 62
2018-04-11 12:00:00 6.9 12 Sudoeste 24 Sudoeste 0 -- -- 69
2018-04-11 11:00:00 5.4 10 Sudoeste 29 Sudoeste 0 -- -- 74
2018-04-11 10:00:00 4.7 9 Sudoeste 20 Sur 0 -- -- 77
2018-04-11 09:00:00 4.7 14 Sudoeste 32 Sur 0 -- -- 77
2018-04-11 08:00:00 4.6 11 Sudoeste 23 Sudoeste 0 -- -- 79
2018-04-11 07:00:00 5.2 6 Oeste 17 Noroeste 0 -- -- 81
2018-04-11 06:00:00 5.3 8 Oeste 23 Oeste 0 -- -- 81
2018-04-11 05:00:00 4.9 6 Oeste 24 Oeste 0 -- -- 85
2018-04-11 04:00:00 4.5 9 Oeste 19 Oeste 0 -- -- 88
2018-04-11 03:00:00 4.6 10 Oeste 19 Sudoeste 0 -- -- 91
2018-04-11 02:00:00 4.4 0 Calma 11 Sudoeste 0.2 -- -- 95
2018-04-11 01:00:00 4.7 5 Sudoeste 15 Oeste 1.6 -- -- 93
2018-04-11 00:00:00 4.7 0 Calma 6 Norte 0.2 -- -- 94
2018-04-10 23:00:00 4.8 4 Norte 8 Este 0.2 -- -- 93
2018-04-10 22:00:00 5.4 2 Noroeste 7 Norte 0.2 -- -- 93
2018-04-10 21:00:00 5.6 3 Norte 9 Sur 0.2 -- -- 90
2018-04-10 20:00:00 6.7 3 Sur 18 Noroeste 0.4 -- -- 82
2018-04-10 19:00:00 7 15 Oeste 33 Sudoeste 0.2 -- -- 78
2018-04-10 18:00:00 6.8 10 Sudoeste 36 Sudoeste 0.6 -- -- 85
2018-04-10 17:00:00 8.2 19 Oeste 35 Sudoeste 1 -- -- 75
2018-04-10 16:00:00 8.4 3 Norte 31 Oeste 0.2 -- -- 86
2018-04-10 15:00:00 9.4 7 Oeste 17 Este 0.2 -- -- 77
2018-04-10 14:00:00 8.5 12 Este 18 Este 0 -- -- 87
2018-04-10 13:00:00 7.3 5 Nordeste 14 Este 0 -- -- 90
2018-04-10 12:00:00 6.5 0 Calma 6 Sudoeste 0.4 -- -- 90
2018-04-10 11:00:00 6.1 6 Noroeste 27 Norte 1.6 -- -- 91
2018-04-10 10:00:00 6.9 0 Calma 7 Norte 2.8 -- -- 98
2018-04-10 09:00:00 6.8 4 Norte 10 Norte 2.6 -- -- 97
2018-04-10 08:00:00 7.1 4 Norte 22 Sudoeste 1 -- -- 92
2018-04-10 07:00:00 7.1 10 Sudoeste 25 Sudoeste 2.6 -- -- 92
2018-04-10 06:00:00 6.5 6 Nordeste 8 Nordeste 1.6 -- -- 98
2018-04-10 05:00:00 6.3 3 Norte 6 Nordeste 0.6 -- -- 98
2018-04-10 04:00:00 6.3 0 Calma 7 Nordeste 0 -- -- 98
2018-04-10 03:00:00 6.3 0 Calma 6 Norte 0 -- -- 97
2018-04-10 02:00:00 6.7 3 Nordeste 6 Norte 0 -- -- 97
2018-04-10 01:00:00 7.1 2 Noroeste 5 Noroeste 0 -- -- 97
2018-04-10 00:00:00 7.3 2 Sudeste 5 Norte 0 -- -- 97
2018-04-09 23:00:00 7.5 0 Calma 4 Norte 0 -- -- 96
2018-04-09 22:00:00 7.6 0 Calma 3 Norte 0.2 -- -- 95
2018-04-09 21:00:00 7.9 0 Calma 8 Este 0.4 -- -- 92
2018-04-09 20:00:00 7.8 4 Este 13 Este 0 -- -- 89
2018-04-09 19:00:00 7.8 4 Este 11 Este 0 -- -- 89
2018-04-09 18:00:00 8.2 3 Este 9 Sudeste 0 -- -- 82
2018-04-09 17:00:00 8.8 4 Este 8 Este 0 -- -- 81
2018-04-09 16:00:00 8.2 4 Este 10 Este 0.2 -- -- 81
2018-04-09 15:00:00 7.4 2 Noroeste 9 Este 0.2 -- -- 83
2018-04-09 14:00:00 6.2 5 Este 11 Este 0 -- -- 85
2018-04-09 13:00:00 5.9 4 Sudeste 8 Sudoeste 0 -- -- 90
2018-04-09 12:00:00 4.1 2 Sudoeste 5 Sudoeste 0.2 -- -- 94
2018-04-09 11:00:00 2.6 0 Calma 4 Sudoeste 0.4 -- -- 97
2018-04-09 10:00:00 1.3 0 Calma 3 Nordeste 0.6 -- -- 97
2018-04-09 09:00:00 1.1 0 Calma 5 Norte 1.2 -- -- 97
2018-04-09 08:00:00 1.6 3 Norte 9 Norte 1.4 -- -- 96
2018-04-09 07:00:00 2.5 5 Norte 9 Norte 2.2 -- -- 93
2018-04-09 06:00:00 3.7 3 Nordeste 6 Nordeste 2.2 -- -- 94
2018-04-09 05:00:00 4.3 3 Norte 6 Noroeste 1.6 -- -- 93
2018-04-09 04:00:00 5.1 0 Calma 5 Este 0.8 -- -- 96
2018-04-09 03:00:00 5.2 0 Calma 3 Nordeste 0.6 -- -- 96
2018-04-09 02:00:00 5.1 0 Calma 5 Norte 0.6 -- -- 95
2018-04-09 01:00:00 5.1 2 Noroeste 6 Este 0.6 -- -- 95
2018-04-09 00:00:00 5 4 Norte 9 Oeste 0.2 -- -- 94
2018-04-08 23:00:00 5.3 4 Este 23 Oeste 1.2 -- -- 90
2018-04-08 22:00:00 6.6 10 Oeste 29 Norte 2 -- -- 83
2018-04-08 21:00:00 8.4 6 Sudoeste 21 Sudoeste 0.8 -- -- 82
2018-04-08 20:00:00 9 6 Norte 27 Sur 2 -- -- 88
2018-04-08 19:00:00 12.3 15 Sur 32 Sudeste 0 -- -- 63
2018-04-08 18:00:00 13.6 10 Sur 29 Sudoeste 0 -- -- 57
2018-04-08 17:00:00 13.2 11 Sudoeste 35 Sudoeste 0 -- -- 59
2018-04-08 16:00:00 12.2 7 Nordeste 22 Oeste 0.2 -- -- 71
2018-04-08 15:00:00 12 9 Sudoeste 28 Sudoeste 0.2 -- -- 75
2018-04-08 14:00:00 12 13 Este 22 Este 0 -- -- 78
2018-04-08 13:00:00 11.4 8 Este 14 Este 0.2 -- -- 74
2018-04-08 12:00:00 10.2 2 Sudeste 12 Oeste 0 -- -- 76
2018-04-08 11:00:00 10.2 6 Noroeste 16 Nordeste 0 -- -- 74
2018-04-08 10:00:00 8.1 5 Oeste 11 Sudoeste 0 -- -- 94
2018-04-08 09:00:00 6.8 3 Sudoeste 6 Este 0 -- -- 98
2018-04-08 08:00:00 6.4 0 Calma 3 Sudeste 0 -- -- 97
2018-04-08 07:00:00 6.6 2 Este 5 Este 0 -- -- 97
2018-04-08 06:00:00 6.8 0 Calma 3 Este 0 -- -- 97
2018-04-08 05:00:00 7.1 0 Calma 6 Oeste 0 -- -- 96
2018-04-08 04:00:00 6.9 0 Calma 3 Oeste 0 -- -- 96
2018-04-08 03:00:00 6.8 0 Calma 5 Este 0 -- -- 96
2018-04-08 02:00:00 6.8 0 Calma 5 Oeste 0 -- -- 95
2018-04-08 01:00:00 7 2 Norte 3 Norte 0 -- -- 96
2018-04-08 00:00:00 6.8 0 Calma 3 Sudeste 0.2 -- -- 95
2018-04-07 23:00:00 7.7 0 Calma 3 Nordeste 0 -- -- 92
2018-04-07 22:00:00 8.4 0 Calma 10 Sudeste 0.2 -- -- 91
2018-04-07 21:00:00 9.3 4 Este 11 Oeste 0.6 -- -- 86
2018-04-07 20:00:00 11.7 0 Calma 15 Sudoeste 0 -- -- 72
2018-04-07 19:00:00 12.7 4 Sudoeste 19 Sudoeste 0 -- -- 60
2018-04-07 18:00:00 10.9 6 Noroeste 30 Sudoeste 0.2 -- -- 74
2018-04-07 17:00:00 12.4 6 Sudeste 18 Este 0 -- -- 62
2018-04-07 16:00:00 11.5 5 Norte 19 Noroeste 0.2 -- -- 78
2018-04-07 15:00:00 10.1 8 Sur 28 Este 1 -- -- 79
2018-04-07 14:00:00 12.7 6 Sudoeste 15 Sur 0 -- -- 63
2018-04-07 13:00:00 11.1 5 Oeste 15 Sudoeste 0 -- -- 70
2018-04-07 12:00:00 9.6 3 Norte 7 Este 0 -- -- 83
2018-04-07 11:00:00 8.4 4 Este 8 Este 0 -- -- 92
2018-04-07 10:00:00 7.4 0 Calma 5 Norte 0 -- -- 96
2018-04-07 09:00:00 6.8 3 Norte 5 Nordeste 0 -- -- 97
2018-04-07 08:00:00 6.9 0 Calma 7 Norte 0 -- -- 96
2018-04-07 07:00:00 7.1 0 Calma 12 Nordeste 0.6 -- -- 95
2018-04-07 06:00:00 7.3 3 Sudoeste 7 Oeste 1.2 -- -- 95
2018-04-07 05:00:00 7.7 4 Nordeste 11 Sudeste 0.6 -- -- 90
2018-04-07 04:00:00 8 3 Este 6 Este 0.8 -- -- 95
2018-04-07 03:00:00 8.3 4 Este 10 Este 0.2 -- -- 92
2018-04-07 02:00:00 8.5 3 Nordeste 7 Este 0.4 -- -- 95
2018-04-07 01:00:00 8.7 2 Nordeste 8 Nordeste 0.2 -- -- 93
2018-04-07 00:00:00 8.9 5 Este 19 Sudeste 0.8 -- -- 91
2018-04-06 23:00:00 9.6 0 Calma 7 Nordeste 1 -- -- 91
2018-04-06 22:00:00 10.4 4 Este 27 Sudoeste 1.6 -- -- 85
2018-04-06 21:00:00 13.2 7 Noroeste 27 Noroeste 0 -- -- 62
2018-04-06 20:00:00 15.9 13 Sudoeste 39 Oeste 0 -- -- 52
2018-04-06 19:00:00 17.3 8 Sudoeste 53 Oeste 0 -- -- 51
2018-04-06 18:00:00 17.9 9 Oeste 46 Oeste 0 -- -- 49
2018-04-06 17:00:00 18.1 17 Oeste 44 Sudoeste 0 -- -- 53
2018-04-06 16:00:00 17.3 17 Este 39 Este 0 -- -- 57
2018-04-06 15:00:00 17 18 Sudeste 45 Sudeste 0 -- -- 56
2018-04-06 14:00:00 16.8 16 Este 36 Este 0 -- -- 55
2018-04-06 13:00:00 15.9 13 Este 30 Este 0 -- -- 57
2018-04-06 12:00:00 15.8 9 Sudeste 30 Sudoeste 0 -- -- 59
2018-04-06 11:00:00 14.6 12 Oeste 24 Sudoeste 0 -- -- 59
2018-04-06 10:00:00 11.7 4 Sur 17 Sur 0 -- -- 79
2018-04-06 09:00:00 5.9 3 Este 8 Este 0 -- -- 98
2018-04-06 08:00:00 5.1 2 Este 8 Este 0 -- -- 96
2018-04-06 07:00:00 5.4 0 Calma 10 Nordeste 0 -- -- 96
2018-04-06 06:00:00 5.4 3 Noroeste 9 Este 0 -- -- 96
2018-04-06 05:00:00 5.9 0 Calma 7 Norte 0 -- -- 94
2018-04-06 04:00:00 6.3 0 Calma 8 Sur 0 -- -- 93
2018-04-06 03:00:00 6.8 3 Noroeste 6 Sudoeste 0 -- -- 91
2018-04-06 02:00:00 7.5 2 Norte 6 Norte 0 -- -- 89
2018-04-06 01:00:00 8.4 4 Este 9 Norte 0 -- -- 86
2018-04-06 00:00:00 9.2 5 Noroeste 12 Norte 0 -- -- 83
2018-04-05 23:00:00 10.9 4 Norte 14 Sudoeste 0 -- -- 75
2018-04-05 22:00:00 12.2 4 Norte 14 Norte 0 -- -- 70
2018-04-05 21:00:00 15 3 Norte 22 Oeste 0 -- -- 59
2018-04-05 20:00:00 17.5 10 Oeste 23 Sudoeste 0 -- -- 47
2018-04-05 19:00:00 17.2 7 Oeste 25 Oeste 0 -- -- 49
2018-04-05 18:00:00 17.1 10 Sudoeste 32 Sudeste 0 -- -- 48
2018-04-05 17:00:00 17.8 8 Sudoeste 30 Oeste 0 -- -- 42
2018-04-05 16:00:00 17 13 Oeste 27 Sudoeste 0 -- -- 45
2018-04-05 15:00:00 16.8 5 Oeste 23 Sudoeste 0 -- -- 51
2018-04-05 14:00:00 15.4 9 Oeste 26 Oeste 0 -- -- 55
2018-04-05 13:00:00 13.9 10 Oeste 29 Sudoeste 0 -- -- 54
2018-04-05 12:00:00 12.2 3 Noroeste 10 Noroeste 0 -- -- 64
2018-04-05 11:00:00 7.5 3 Nordeste 6 Nordeste 0 -- -- 88
2018-04-05 10:00:00 4.1 0 Calma 4 Norte 0 -- -- 99
2018-04-05 09:00:00 1.7 0 Calma 5 Norte 0 -- -- 98
2018-04-05 08:00:00 1.2 0 Calma 5 Noroeste 0 -- -- 97
2018-04-05 07:00:00 1.5 0 Calma 6 Norte 0 -- -- 97
2018-04-05 06:00:00 2 3 Norte 6 Norte 0 -- -- 97
2018-04-05 05:00:00 2.7 0 Calma 7 Norte 0 -- -- 96
2018-04-05 04:00:00 3.3 3 Norte 8 Norte 0 -- -- 95
2018-04-05 03:00:00 4.2 3 Norte 9 Norte 0 -- -- 94
2018-04-05 02:00:00 4.9 4 Noroeste 8 Norte 0 -- -- 94
2018-04-05 01:00:00 5.9 3 Noroeste 12 Oeste 0 -- -- 92
2018-04-05 00:00:00 7.1 3 Noroeste 8 Noroeste 0 -- -- 89
2018-04-04 23:00:00 7.9 3 Oeste 12 Sudoeste 0 -- -- 87
2018-04-04 22:00:00 10 0 Calma 15 Noroeste 0 -- -- 78
2018-04-04 21:00:00 12.9 9 Noroeste 21 Oeste 0 -- -- 64
2018-04-04 20:00:00 14.7 9 Oeste 21 Sudoeste 0 -- -- 57
2018-04-04 19:00:00 15.5 9 Oeste 24 Noroeste 0 -- -- 59
2018-04-04 18:00:00 15.1 8 Sudoeste 21 Sudoeste 0 -- -- 62
2018-04-04 17:00:00 14.1 6 Sudoeste 18 Sudoeste 0 -- -- 68
2018-04-04 16:00:00 13 4 Oeste 18 Oeste 0.6 -- -- 81
2018-04-04 15:00:00 12.9 4 Oeste 19 Este 0.4 -- -- 80
2018-04-04 14:00:00 12.5 5 Nordeste 15 Este 0.2 -- -- 81
2018-04-04 13:00:00 11.6 4 Sudoeste 13 Sudeste 0 -- -- 78
2018-04-04 12:00:00 11.2 3 Sur 16 Oeste 0 -- -- 79
2018-04-04 11:00:00 10.7 4 Este 9 Este 0 -- -- 88
2018-04-04 10:00:00 8.1 0 Calma 4 Este 0.4 -- -- 98
2018-04-04 09:00:00 7.6 0 Calma 8 Norte 0.4 -- -- 97
2018-04-04 08:00:00 7.4 3 Nordeste 8 Noroeste 0 -- -- 97
2018-04-04 07:00:00 7.4 0 Calma 7 Norte 0.2 -- -- 97
2018-04-04 06:00:00 7.6 3 Norte 6 Oeste 0.6 -- -- 96
2018-04-04 05:00:00 7.9 4 Nordeste 11 Norte 0.4 -- -- 96
2018-04-04 04:00:00 7.8 4 Norte 8 Norte 2.4 -- -- 96
2018-04-04 03:00:00 8.2 7 Norte 15 Norte 0.6 -- -- 92
2018-04-04 02:00:00 7.8 8 Norte 16 Norte 0 -- -- 94
2018-04-04 01:00:00 8 3 Noroeste 15 Sur 0.2 -- -- 93
2018-04-04 00:00:00 8.4 5 Sur 18 Sudeste 0 -- -- 87
2018-04-03 23:00:00 7.6 0 Calma 15 Sudeste 0 -- -- 93
2018-04-03 22:00:00 7.3 2 Norte 14 Sudoeste 0 -- -- 91
2018-04-03 21:00:00 8.6 6 Oeste 31 Sudoeste 1.6 -- -- 84
2018-04-03 20:00:00 9.8 14 Oeste 36 Sudoeste 2.6 -- -- 75
2018-04-03 19:00:00 10.7 10 Oeste 33 Sur 2 -- -- 85
2018-04-03 18:00:00 11.5 11 Sur 39 Sur 0.6 -- -- 75
2018-04-03 17:00:00 13 3 Sur 38 Sur 0 -- -- 69
2018-04-03 16:00:00 12.8 13 Sur 36 Sudeste 0 -- -- 73
2018-04-03 15:00:00 11.7 5 Noroeste 28 Sur 0.6 -- -- 83
2018-04-03 14:00:00 11 7 Sur 27 Sudoeste 3.4 -- -- 81
2018-04-03 13:00:00 12.4 13 Sudoeste 35 Sudoeste 0.8 -- -- 76
2018-04-03 12:00:00 10.5 8 Sudeste 44 Sudeste 2.6 -- -- 87
2018-04-03 11:00:00 10.8 14 Sur 39 Sur 0.8 -- -- 79
2018-04-03 10:00:00 10.5 11 Sudoeste 29 Sudeste 0.4 -- -- 83
2018-04-03 09:00:00 10.2 7 Sudoeste 25 Sudoeste 0.8 -- -- 84
2018-04-03 08:00:00 10.3 8 Sur 42 Nordeste 2 -- -- 87
2018-04-03 07:00:00 10.2 8 Sudoeste 34 Sudeste 1.4 -- -- 87
2018-04-03 06:00:00 10.4 12 Sur 36 Sur 0.8 -- -- 85
2018-04-03 05:00:00 10.8 12 Sudoeste 43 Oeste 1.2 -- -- 83
2018-04-03 04:00:00 11.1 10 Sudoeste 31 Sudoeste 0.2 -- -- 80
2018-04-03 03:00:00 10.9 5 Sudeste 26 Sudoeste 0 -- -- 86
2018-04-03 02:00:00 10.2 3 Norte 9 Oeste 0.6 -- -- 95
2018-04-03 01:00:00 10.8 3 Nordeste 16 Norte 2.2 -- -- 92
2018-04-03 00:00:00 10.7 4 Nordeste 9 Este 0.2 -- -- 94
2018-04-02 23:00:00 10.9 4 Norte 10 Norte 0 -- -- 93
2018-04-02 22:00:00 11.3 5 Norte 12 Norte 0 -- -- 93
2018-04-02 21:00:00 11.9 4 Nordeste 23 Sudoeste 0 -- -- 91
2018-04-02 20:00:00 12.2 3 Oeste 10 Este 0.4 -- -- 92
2018-04-02 19:00:00 12.2 3 Nordeste 12 Noroeste 2 -- -- 92
2018-04-02 18:00:00 12.3 2 Oeste 16 Sudoeste 3.4 -- -- 89
2018-04-02 17:00:00 13 5 Sudoeste 17 Sudoeste 0.6 -- -- 80
2018-04-02 16:00:00 13.6 14 Sudoeste 40 Oeste 0 -- -- 73
2018-04-02 15:00:00 15.7 17 Sudoeste 44 Oeste 0 -- -- 54
2018-04-02 14:00:00 14.4 13 Sudoeste 34 Sudoeste 0 -- -- 57
2018-04-02 13:00:00 13.4 15 Oeste 37 Sudoeste 0 -- -- 61
2018-04-02 12:00:00 13.4 19 Sudoeste 40 Oeste 0 -- -- 61
2018-04-02 11:00:00 12.7 16 Sudoeste 34 Sudoeste 0 -- -- 63
2018-04-02 10:00:00 12.1 10 Sudoeste 30 Sudoeste 0 -- -- 67
2018-04-02 09:00:00 6.4 3 Sudoeste 8 Nordeste 0 -- -- 94
2018-04-02 08:00:00 6 0 Calma 5 Este 0 -- -- 90
2018-04-02 07:00:00 7.5 2 Noroeste 8 Norte 0 -- -- 86
2018-04-02 06:00:00 8.3 0 Calma 12 Norte 0 -- -- 82
2018-04-02 05:00:00 9.9 8 Norte 12 Norte 0 -- -- 76
2018-04-02 04:00:00 8.7 5 Nordeste 19 Este 0 -- -- 81
2018-04-02 03:00:00 7.1 2 Nordeste 9 Oeste 0 -- -- 89
2018-04-02 02:00:00 7.7 3 Sudeste 7 Sudeste 0 -- -- 87
2018-04-02 01:00:00 8.4 3 Este 7 Este 0 -- -- 83
2018-04-02 00:00:00 10.1 0 Calma 10 Este 0 -- -- 76
2018-04-01 23:00:00 11.5 4 Este 15 Sudoeste 0 -- -- 69
2018-04-01 22:00:00 12.4 3 Noroeste 15 Norte 0 -- -- 65
2018-04-01 21:00:00 13.6 3 Norte 10 Norte 0 -- -- 62
2018-04-01 20:00:00 15.6 4 Norte 9 Nordeste 0 -- -- 55
2018-04-01 19:00:00 16.6 6 Sudoeste 20 Sudoeste 0 -- -- 47
2018-04-01 18:00:00 16.5 9 Oeste 26 Oeste 0 -- -- 47
2018-04-01 17:00:00 16.5 6 Oeste 27 Oeste 0 -- -- 45
2018-04-01 16:00:00 16.3 13 Sudoeste 29 Sudoeste 0 -- -- 43
2018-04-01 15:00:00 16.6 12 Oeste 30 Oeste 0 -- -- 44
2018-04-01 14:00:00 16.3 17 Sudoeste 32 Oeste 0 -- -- 45
2018-04-01 13:00:00 15 10 Oeste 26 Sudoeste 0 -- -- 45
2018-04-01 12:00:00 12.7 11 Oeste 22 Oeste 0 -- -- 51
2018-04-01 11:00:00 8.2 3 Este 6 Este 0 -- -- 83
2018-04-01 10:00:00 4.1 0 Calma 3 Noroeste 0 -- -- 96
2018-04-01 09:00:00 2.6 0 Calma 5 Norte 0 -- -- 97
2018-04-01 08:00:00 2.2 3 Norte 4 Norte 0 -- -- 96
2018-04-01 07:00:00 2.2 2 Norte 4 Norte 0 -- -- 95
2018-04-01 06:00:00 2.2 0 Calma 5 Norte 0 -- -- 95
2018-04-01 05:00:00 2.4 2 Norte 4 Noroeste 0 -- -- 94
2018-04-01 04:00:00 3 2 Norte 5 Norte 0 -- -- 92
2018-04-01 03:00:00 3.6 0 Calma 4 Noroeste 0 -- -- 91
2018-04-01 02:00:00 4.2 0 Calma 4 Norte 0 -- -- 88
2018-04-01 01:00:00 4.3 0 Calma 5 Noroeste 0 -- -- 87
2018-04-01 00:00:00 4.7 2 Oeste 6 Norte 0 -- -- 85
2018-03-31 23:00:00 5.7 3 Noroeste 6 Norte 0 -- -- 80
2018-03-31 22:00:00 7.2 3 Noroeste 7 Noroeste 0 -- -- 74
2018-03-31 21:00:00 10 3 Norte 9 Oeste 0 -- -- 65
2018-03-31 20:00:00 14.1 5 Noroeste 19 Sudoeste 0 -- -- 45
2018-03-31 19:00:00 15.2 10 Oeste 19 Sudoeste 0 -- -- 37
2018-03-31 18:00:00 14.7 12 Oeste 23 Noroeste 0 -- -- 39
2018-03-31 17:00:00 14.9 6 Oeste 22 Oeste 0 -- -- 38
2018-03-31 16:00:00 14 8 Noroeste 26 Oeste 0 -- -- 43
2018-03-31 15:00:00 12.6 11 Sudoeste 24 Oeste 0 -- -- 42
2018-03-31 14:00:00 11.8 10 Noroeste 28 Oeste 0 -- -- 52
2018-03-31 13:00:00 10.5 13 Oeste 25 Oeste 0 -- -- 56
2018-03-31 12:00:00 8.7 5 Este 14 Sudoeste 0 -- -- 66
2018-03-31 11:00:00 7.3 7 Sudoeste 26 Sudoeste 0 -- -- 68
2018-03-31 10:00:00 7 6 Sudoeste 21 Oeste 0 -- -- 68
2018-03-31 09:00:00 6.7 4 Sudoeste 20 Oeste 0 -- -- 69
2018-03-31 08:00:00 6.4 3 Noroeste 29 Oeste 0 -- -- 71
2018-03-31 07:00:00 6.6 12 Oeste 28 Sudoeste 0 -- -- 67
2018-03-31 06:00:00 6.4 7 Oeste 26 Oeste 0 -- -- 70
2018-03-31 05:00:00 6.1 10 Oeste 35 Oeste 0 -- -- 73
2018-03-31 04:00:00 6.5 14 Oeste 35 Oeste 0 -- -- 65
2018-03-31 03:00:00 6.2 10 Oeste 44 Sudoeste 0 -- -- 69
2018-03-31 02:00:00 5.4 8 Noroeste 35 Sudoeste 0 -- -- 74
2018-03-31 01:00:00 6.5 13 Oeste 46 Sudoeste 0 -- -- 68
2018-03-31 00:00:00 6.9 20 Oeste 41 Oeste 0 -- -- 64
2018-03-30 23:00:00 6.6 10 Oeste 24 Oeste 0 -- -- 72
2018-03-30 22:00:00 6.7 10 Oeste 45 Sudoeste 0.2 -- -- 70
2018-03-30 21:00:00 5.8 3 Norte 11 Sudoeste 0.2 -- -- 91
2018-03-30 20:00:00 5.8 9 Nordeste 15 Este 1.2 -- -- 87
2018-03-30 19:00:00 6.5 4 Sudoeste 26 Sudoeste 2 -- -- 85
2018-03-30 18:00:00 7.8 5 Sudoeste 33 Sudeste 0.4 -- -- 76
2018-03-30 17:00:00 9.4 16 Sur 41 Sudeste 0 -- -- 63
2018-03-30 16:00:00 10.3 15 Sur 41 Sur 0 -- -- 57
2018-03-30 15:00:00 10.2 9 Sudoeste 34 Sudeste 0 -- -- 52
2018-03-30 14:00:00 10.2 9 Sur 22 Oeste 0 -- -- 57
2018-03-30 13:00:00 9.5 9 Sudoeste 23 Este 0 -- -- 58
2018-03-30 12:00:00 7.5 10 Este 20 Este 0 -- -- 63
2018-03-30 11:00:00 6.7 4 Sudoeste 10 Sudoeste 0 -- -- 66
2018-03-30 10:00:00 4.4 2 Oeste 5 Oeste 0 -- -- 84
2018-03-30 09:00:00 2.3 2 Oeste 10 Sudoeste 0 -- -- 90
2018-03-30 08:00:00 2.9 0 Calma 14 Oeste 0 -- -- 87
2018-03-30 07:00:00 4.4 5 Noroeste 22 Oeste 0 -- -- 78
2018-03-30 06:00:00 5.3 9 Noroeste 24 Oeste 0 -- -- 77
2018-03-30 05:00:00 5.4 4 Noroeste 21 Sudoeste 0.2 -- -- 84
2018-03-30 04:00:00 6.5 5 Oeste 23 Oeste 0.2 -- -- 82
2018-03-30 03:00:00 7.2 3 Noroeste 9 Noroeste 0.2 -- -- 90
2018-03-30 02:00:00 7.7 4 Sudoeste 19 Oeste 0 -- -- 82
2018-03-30 01:00:00 7.5 6 Sur 19 Oeste 0.6 -- -- 86
2018-03-30 00:00:00 7.7 7 Sudoeste 19 Sur 1.2 -- -- 84
2018-03-29 23:00:00 8.1 7 Sudoeste 24 Sur 0.6 -- -- 79
2018-03-29 22:00:00 9.6 7 Sudoeste 30 Oeste 0 -- -- 68
2018-03-29 21:00:00 10.9 8 Sur 29 Oeste 0 -- -- 52
2018-03-29 20:00:00 11.5 8 Sudoeste 32 Oeste 0 -- -- 49
2018-03-29 19:00:00 12.8 12 Sudoeste 28 Sudoeste 0 -- -- 43
2018-03-29 18:00:00 14 9 Sudoeste 28 Sur 0 -- -- 41
2018-03-29 17:00:00 13 8 Sur 30 Sudoeste 0 -- -- 47
2018-03-29 16:00:00 13.6 11 Oeste 31 Noroeste 0 -- -- 43
2018-03-29 15:00:00 14.3 8 Sudoeste 22 Sudoeste 0 -- -- 35
2018-03-29 14:00:00 12.8 9 Oeste 24 Noroeste 0 -- -- 44
2018-03-29 13:00:00 10.9 8 Oeste 29 Oeste 0 -- -- 47
2018-03-29 12:00:00 9.2 16 Oeste 34 Sudoeste 0 -- -- 53
2018-03-29 11:00:00 8 20 Sudoeste 37 Sudoeste 0 -- -- 56
2018-03-29 10:00:00 6.9 9 Sudoeste 26 Sudoeste 0 -- -- 63
2018-03-29 09:00:00 6 13 Sudoeste 29 Sudoeste 0 -- -- 67
2018-03-29 08:00:00 6.4 8 Oeste 26 Noroeste 0 -- -- 68
2018-03-29 07:00:00 7.4 11 Oeste 21 Oeste 0 -- -- 67
2018-03-29 06:00:00 8.1 6 Noroeste 17 Oeste 0 -- -- 71
2018-03-29 05:00:00 9 7 Noroeste 15 Sudoeste 0 -- -- 72
2018-03-29 04:00:00 9.6 8 Oeste 19 Noroeste 0 -- -- 74
2018-03-29 03:00:00 9.2 3 Noroeste 17 Noroeste 0 -- -- 78
2018-03-29 02:00:00 10.5 2 Oeste 18 Sudoeste 0 -- -- 74
2018-03-29 01:00:00 10.7 3 Nordeste 21 Sudoeste 0 -- -- 73
2018-03-29 00:00:00 11.9 10 Sudoeste 27 Sudoeste 0 -- -- 68
2018-03-28 23:00:00 12.2 9 Oeste 20 Oeste 0 -- -- 69
2018-03-28 22:00:00 12.7 11 Oeste 22 Sudoeste 0 -- -- 66
2018-03-28 21:00:00 13.3 10 Oeste 30 Sudoeste 0 -- -- 63
2018-03-28 20:00:00 14.5 11 Sudoeste 25 Oeste 0 -- -- 60
2018-03-28 19:00:00 16.4 10 Oeste 36 Oeste 0 -- -- 55
2018-03-28 18:00:00 18 19 Noroeste 34 Noroeste 0 -- -- 49
2018-03-28 17:00:00 18.6 14 Noroeste 35 Oeste 0 -- -- 48
2018-03-28 16:00:00 17.9 17 Oeste 34 Oeste 0 -- -- 48
2018-03-28 15:00:00 18.7 17 Oeste 31 Oeste 0 -- -- 44
2018-03-28 14:00:00 19.9 14 Este 25 Este 0 -- -- 34
2018-03-28 13:00:00 19.2 12 Este 21 Este 0 -- -- 35
2018-03-28 12:00:00 16 6 Nordeste 14 Nordeste 0 -- -- 50
2018-03-28 11:00:00 11.8 2 Norte 5 Norte 0 -- -- 61
2018-03-28 10:00:00 6.1 2 Norte 5 Norte 0 -- -- 86
2018-03-28 09:00:00 2.3 2 Norte 4 Norte 0 -- -- 95
2018-03-28 08:00:00 2.5 3 Norte 6 Norte 0 -- -- 92
2018-03-28 07:00:00 3.8 0 Calma 8 Noroeste 0 -- -- 91
2018-03-28 06:00:00 4.9 3 Norte 8 Noroeste 0 -- -- 90
2018-03-28 05:00:00 6.2 4 Noroeste 8 Noroeste 0 -- -- 86
2018-03-28 04:00:00 6.9 3 Noroeste 10 Oeste 0 -- -- 84
2018-03-28 03:00:00 8.5 3 Oeste 9 Noroeste 0 -- -- 79
2018-03-28 02:00:00 9.7 3 Noroeste 17 Sudoeste 0 -- -- 73
2018-03-28 01:00:00 12 12 Oeste 18 Sudoeste 0 -- -- 64
2018-03-28 00:00:00 9.4 2 Norte 8 Oeste 0 -- -- 71
2018-03-27 23:00:00 10.2 3 Noroeste 8 Oeste 0 -- -- 65
2018-03-27 22:00:00 12.1 3 Noroeste 10 Noroeste 0 -- -- 57
2018-03-27 21:00:00 15.4 0 Calma 14 Nordeste 0 -- -- 51
2018-03-27 20:00:00 20.5 6 Noroeste 18 Norte 0 -- -- 36
2018-03-27 19:00:00 21.5 5 Norte 22 Noroeste 0 -- -- 34
2018-03-27 18:00:00 21.3 7 Norte 26 Norte 0 -- -- 38
2018-03-27 17:00:00 21.4 12 Sudoeste 32 Oeste 0 -- -- 39
2018-03-27 16:00:00 20.7 17 Sudoeste 31 Sudoeste 0 -- -- 42
2018-03-27 15:00:00 19.1 18 Oeste 35 Sudoeste 0 -- -- 47
2018-03-27 14:00:00 17.8 22 Sudoeste 37 Oeste 0 -- -- 51
2018-03-27 13:00:00 16.4 19 Sudoeste 32 Sudoeste 0 -- -- 51
2018-03-27 12:00:00 15.1 18 Sudoeste 33 Oeste 0 -- -- 51
2018-03-27 11:00:00 13.6 18 Sudoeste 39 Sudoeste 0 -- -- 55
2018-03-27 10:00:00 8.6 4 Nordeste 9 Este 0 -- -- 85
2018-03-27 09:00:00 5.3 2 Este 6 Este 0 -- -- 91
2018-03-27 08:00:00 6.8 3 Nordeste 28 Oeste 0 -- -- 85
2018-03-27 07:00:00 10 13 Oeste 24 Sudoeste 0 -- -- 76
2018-03-27 06:00:00 10.2 13 Oeste 35 Sudoeste 0 -- -- 76
2018-03-27 05:00:00 8.2 4 Oeste 13 Sudoeste 0 -- -- 81
2018-03-27 04:00:00 10.3 2 Sudeste 15 Sur 0 -- -- 72
2018-03-27 03:00:00 10 3 Oeste 14 Oeste 0 -- -- 72
2018-03-27 02:00:00 9.3 7 Oeste 12 Oeste 0 -- -- 71
2018-03-27 01:00:00 9.1 6 Oeste 17 Oeste 0 -- -- 72
2018-03-27 00:00:00 8.7 6 Oeste 12 Sudoeste 0 -- -- 70